Terminal Aerodrome Forecast
Issued by NWS

Home | Current Version | Previous Version | Text Only | Print | Product List | Glossary Off
Versions: 1 2 3 4 5 6 7 8 9 10 11 12 13 14 15 16 17 18 19 20 21 22 23 24 25

000
FTUS43 KBIS 192300
TAFMOT
TAF
KMOT 192339Z 2000/2024 00000KT 3SM BR OVC003
     FM200900 VRB03KT 1/4SM FZFG OVC001
     FM201400 14005KT 2SM BR OVC002
     FM201800 17007KT P6SM BKN008
     FM202000 17008KT P6SM BKN020=

USA.gov is the U.S. government's official web portal to all federal, state and local government web resources and services.